sensor_id;sensor_type;location;lat;lon;timestamp;temperature;humidity
16827;DHT22;8530;49.540;8.576;2023-12-14T00:01:42;8.00;99.90
16827;DHT22;8530;49.540;8.576;2023-12-14T00:04:11;7.90;99.90
16827;DHT22;8530;49.540;8.576;2023-12-14T00:06:39;7.90;99.90
16827;DHT22;8530;49.540;8.576;2023-12-14T00:09:06;7.80;99.90
16827;DHT22;8530;49.540;8.576;2023-12-14T00:11:37;7.80;99.90
16827;DHT22;8530;49.540;8.576;2023-12-14T00:14:04;7.70;99.90
16827;DHT22;8530;49.540;8.576;2023-12-14T00:16:31;7.70;99.90
16827;DHT22;8530;49.540;8.576;2023-12-14T00:18:57;7.70;99.90
16827;DHT22;8530;49.540;8.576;2023-12-14T00:21:24;7.70;99.90
16827;DHT22;8530;49.540;8.576;2023-12-14T00:23:52;7.60;99.90
16827;DHT22;8530;49.540;8.576;2023-12-14T00:26:19;7.60;99.90
16827;DHT22;8530;49.540;8.576;2023-12-14T00:28:46;7.60;99.90
16827;DHT22;8530;49.540;8.576;2023-12-14T00:31:12;7.60;99.90
16827;DHT22;8530;49.540;8.576;2023-12-14T00:33:39;7.50;99.90
16827;DHT22;8530;49.540;8.576;2023-12-14T00:36:06;7.50;99.90
16827;DHT22;8530;49.540;8.576;2023-12-14T00:38:33;7.50;99.90
16827;DHT22;8530;49.540;8.576;2023-12-14T00:41:01;7.50;99.90
16827;DHT22;8530;49.540;8.576;2023-12-14T00:43:28;7.50;99.90
16827;DHT22;8530;49.540;8.576;2023-12-14T00:45:55;7.50;99.90
16827;DHT22;8530;49.540;8.576;2023-12-14T00:48:21;7.50;99.90
16827;DHT22;8530;49.540;8.576;2023-12-14T00:50:48;7.50;99.90
16827;DHT22;8530;49.540;8.576;2023-12-14T00:53:15;7.50;99.90
16827;DHT22;8530;49.540;8.576;2023-12-14T00:55:41;7.40;99.90
16827;DHT22;8530;49.540;8.576;2023-12-14T00:58:10;7.40;99.90
16827;DHT22;8530;49.540;8.576;2023-12-14T01:00:38;7.40;99.90
16827;DHT22;8530;49.540;8.576;2023-12-14T01:03:05;7.40;99.90
16827;DHT22;8530;49.540;8.576;2023-12-14T01:05:32;7.50;99.90
16827;DHT22;8530;49.540;8.576;2023-12-14T01:07:58;7.50;99.90
16827;DHT22;8530;49.540;8.576;2023-12-14T01:10:25;7.70;99.90
16827;DHT22;8530;49.540;8.576;2023-12-14T01:12:52;7.70;99.90
16827;DHT22;8530;49.540;8.576;2023-12-14T01:15:20;7.80;99.90
16827;DHT22;8530;49.540;8.576;2023-12-14T01:17:47;7.80;99.90
16827;DHT22;8530;49.540;8.576;2023-12-14T01:20:13;7.90;99.90
16827;DHT22;8530;49.540;8.576;2023-12-14T01:22:40;7.90;99.90
16827;DHT22;8530;49.540;8.576;2023-12-14T01:25:07;7.90;99.90
16827;DHT22;8530;49.540;8.576;2023-12-14T01:27:34;8.00;99.90
16827;DHT22;8530;49.540;8.576;2023-12-14T01:30:01;7.90;99.90
16827;DHT22;8530;49.540;8.576;2023-12-14T01:32:29;7.90;99.90
16827;DHT22;8530;49.540;8.576;2023-12-14T01:34:56;7.90;99.90
16827;DHT22;8530;49.540;8.576;2023-12-14T01:37:22;7.90;99.90
16827;DHT22;8530;49.540;8.576;2023-12-14T01:39:49;7.80;99.90
16827;DHT22;8530;49.540;8.576;2023-12-14T01:42:16;7.80;99.90
16827;DHT22;8530;49.540;8.576;2023-12-14T01:44:42;7.80;99.90
16827;DHT22;8530;49.540;8.576;2023-12-14T01:47:09;7.80;99.90
16827;DHT22;8530;49.540;8.576;2023-12-14T01:49:37;7.70;99.90
16827;DHT22;8530;49.540;8.576;2023-12-14T01:52:05;7.70;99.90
16827;DHT22;8530;49.540;8.576;2023-12-14T01:54:31;7.70;99.90
16827;DHT22;8530;49.540;8.576;2023-12-14T01:56:58;7.70;99.90
16827;DHT22;8530;49.540;8.576;2023-12-14T01:59:25;7.60;99.90
16827;DHT22;8530;49.540;8.576;2023-12-14T02:01:54;7.50;99.90
16827;DHT22;8530;49.540;8.576;2023-12-14T02:04:22;7.50;99.90
16827;DHT22;8530;49.540;8.576;2023-12-14T02:06:50;7.50;99.90
16827;DHT22;8530;49.540;8.576;2023-12-14T02:09:17;7.50;99.90
16827;DHT22;8530;49.540;8.576;2023-12-14T02:11:44;7.50;99.90
16827;DHT22;8530;49.540;8.576;2023-12-14T02:14:11;7.50;99.90
16827;DHT22;8530;49.540;8.576;2023-12-14T02:16:38;7.50;99.90
16827;DHT22;8530;49.540;8.576;2023-12-14T02:19:05;7.50;99.90
16827;DHT22;8530;49.540;8.576;2023-12-14T02:21:32;7.50;99.90
16827;DHT22;8530;49.540;8.576;2023-12-14T02:24:00;7.60;99.90
16827;DHT22;8530;49.540;8.576;2023-12-14T02:26:26;7.60;99.90
16827;DHT22;8530;49.540;8.576;2023-12-14T02:28:52;7.60;99.90
16827;DHT22;8530;49.540;8.576;2023-12-14T02:31:19;7.70;99.90
16827;DHT22;8530;49.540;8.576;2023-12-14T02:33:46;7.70;99.90
16827;DHT22;8530;49.540;8.576;2023-12-14T02:36:13;7.80;99.90
16827;DHT22;8530;49.540;8.576;2023-12-14T02:38:40;7.80;99.90
16827;DHT22;8530;49.540;8.576;2023-12-14T02:41:09;7.80;99.90
16827;DHT22;8530;49.540;8.576;2023-12-14T02:43:36;7.90;99.90
16827;DHT22;8530;49.540;8.576;2023-12-14T02:46:03;7.90;99.90
16827;DHT22;8530;49.540;8.576;2023-12-14T02:48:30;7.90;99.90
16827;DHT22;8530;49.540;8.576;2023-12-14T02:50:57;8.00;99.90
16827;DHT22;8530;49.540;8.576;2023-12-14T02:53:25;8.00;99.90
16827;DHT22;8530;49.540;8.576;2023-12-14T02:55:52;8.00;99.90
16827;DHT22;8530;49.540;8.576;2023-12-14T02:58:20;8.10;99.90
16827;DHT22;8530;49.540;8.576;2023-12-14T03:00:46;8.10;99.90
16827;DHT22;8530;49.540;8.576;2023-12-14T03:03:13;8.10;99.90
16827;DHT22;8530;49.540;8.576;2023-12-14T03:05:40;8.10;99.90
16827;DHT22;8530;49.540;8.576;2023-12-14T03:08:06;8.10;99.90
16827;DHT22;8530;49.540;8.576;2023-12-14T03:10:33;8.20;99.90
16827;DHT22;8530;49.540;8.576;2023-12-14T03:13:00;8.20;99.90
16827;DHT22;8530;49.540;8.576;2023-12-14T03:15:28;8.20;99.90
16827;DHT22;8530;49.540;8.576;2023-12-14T03:17:55;8.20;99.90
16827;DHT22;8530;49.540;8.576;2023-12-14T03:20:21;8.30;99.90
16827;DHT22;8530;49.540;8.576;2023-12-14T03:22:48;8.30;99.90
16827;DHT22;8530;49.540;8.576;2023-12-14T03:25:15;8.30;99.90
16827;DHT22;8530;49.540;8.576;2023-12-14T03:27:41;8.30;99.90
16827;DHT22;8530;49.540;8.576;2023-12-14T03:30:09;8.30;99.90
16827;DHT22;8530;49.540;8.576;2023-12-14T03:32:37;8.40;99.90
16827;DHT22;8530;49.540;8.576;2023-12-14T03:35:05;8.40;99.90
16827;DHT22;8530;49.540;8.576;2023-12-14T03:37:33;8.40;99.90
16827;DHT22;8530;49.540;8.576;2023-12-14T03:40:00;8.40;99.90
16827;DHT22;8530;49.540;8.576;2023-12-14T03:42:27;8.40;99.90
16827;DHT22;8530;49.540;8.576;2023-12-14T03:44:54;8.40;99.90
16827;DHT22;8530;49.540;8.576;2023-12-14T03:47:21;8.40;99.90
16827;DHT22;8530;49.540;8.576;2023-12-14T03:49:49;8.40;99.90
16827;DHT22;8530;49.540;8.576;2023-12-14T03:52:15;8.40;99.90
16827;DHT22;8530;49.540;8.576;2023-12-14T03:54:42;8.50;99.90
16827;DHT22;8530;49.540;8.576;2023-12-14T03:57:09;8.50;99.90
16827;DHT22;8530;49.540;8.576;2023-12-14T03:59:39;8.50;99.90
16827;DHT22;8530;49.540;8.576;2023-12-14T04:02:05;8.40;99.90
16827;DHT22;8530;49.540;8.576;2023-12-14T04:04:32;8.40;99.90
16827;DHT22;8530;49.540;8.576;2023-12-14T04:07:00;8.40;99.90
16827;DHT22;8530;49.540;8.576;2023-12-14T04:09:27;8.30;99.90
16827;DHT22;8530;49.540;8.576;2023-12-14T04:11:53;8.20;99.90
16827;DHT22;8530;49.540;8.576;2023-12-14T04:14:20;8.10;99.90
16827;DHT22;8530;49.540;8.576;2023-12-14T04:16:46;8.00;99.90
16827;DHT22;8530;49.540;8.576;2023-12-14T04:19:13;7.90;99.90
16827;DHT22;8530;49.540;8.576;2023-12-14T04:21:40;7.80;99.90
16827;DHT22;8530;49.540;8.576;2023-12-14T04:24:08;7.80;99.90
16827;DHT22;8530;49.540;8.576;2023-12-14T04:26:37;7.80;99.90
16827;DHT22;8530;49.540;8.576;2023-12-14T04:29:05;7.70;99.90
16827;DHT22;8530;49.540;8.576;2023-12-14T04:31:33;7.70;99.90
16827;DHT22;8530;49.540;8.576;2023-12-14T04:33:59;7.70;99.90
16827;DHT22;8530;49.540;8.576;2023-12-14T04:36:26;7.60;99.90
16827;DHT22;8530;49.540;8.576;2023-12-14T04:38:53;7.60;99.90
16827;DHT22;8530;49.540;8.576;2023-12-14T04:41:21;7.50;99.90
16827;DHT22;8530;49.540;8.576;2023-12-14T04:43:47;7.50;99.90
16827;DHT22;8530;49.540;8.576;2023-12-14T04:46:14;7.50;99.90
16827;DHT22;8530;49.540;8.576;2023-12-14T04:48:41;7.50;99.90
16827;DHT22;8530;49.540;8.576;2023-12-14T04:51:11;7.50;99.90
16827;DHT22;8530;49.540;8.576;2023-12-14T04:53:38;7.50;99.90
16827;DHT22;8530;49.540;8.576;2023-12-14T04:56:05;7.60;99.90
16827;DHT22;8530;49.540;8.576;2023-12-14T04:58:33;7.60;99.90
16827;DHT22;8530;49.540;8.576;2023-12-14T05:01:00;7.60;99.90
16827;DHT22;8530;49.540;8.576;2023-12-14T05:03:28;7.70;99.90
16827;DHT22;8530;49.540;8.576;2023-12-14T05:05:54;7.70;99.90
16827;DHT22;8530;49.540;8.576;2023-12-14T05:08:22;7.70;99.90
16827;DHT22;8530;49.540;8.576;2023-12-14T05:10:49;7.80;99.90
16827;DHT22;8530;49.540;8.576;2023-12-14T05:13:17;7.80;99.90
16827;DHT22;8530;49.540;8.576;2023-12-14T05:15:45;7.80;99.90
16827;DHT22;8530;49.540;8.576;2023-12-14T05:18:12;7.80;99.90
16827;DHT22;8530;49.540;8.576;2023-12-14T05:20:39;7.80;99.90
16827;DHT22;8530;49.540;8.576;2023-12-14T05:23:05;7.80;99.90
16827;DHT22;8530;49.540;8.576;2023-12-14T05:25:32;7.80;99.90
16827;DHT22;8530;49.540;8.576;2023-12-14T05:27:59;7.90;99.90
16827;DHT22;8530;49.540;8.576;2023-12-14T05:30:25;7.90;99.90
16827;DHT22;8530;49.540;8.576;2023-12-14T05:32:54;7.90;99.90
16827;DHT22;8530;49.540;8.576;2023-12-14T05:35:20;7.90;99.90
16827;DHT22;8530;49.540;8.576;2023-12-14T05:37:47;7.90;99.90
16827;DHT22;8530;49.540;8.576;2023-12-14T05:40:14;7.90;99.90
16827;DHT22;8530;49.540;8.576;2023-12-14T05:42:41;7.90;99.90
16827;DHT22;8530;49.540;8.576;2023-12-14T05:45:08;8.00;99.90
16827;DHT22;8530;49.540;8.576;2023-12-14T05:47:35;8.00;99.90
16827;DHT22;8530;49.540;8.576;2023-12-14T05:50:04;8.00;99.90
16827;DHT22;8530;49.540;8.576;2023-12-14T05:52:31;8.00;99.90
16827;DHT22;8530;49.540;8.576;2023-12-14T05:54:58;8.00;99.90
16827;DHT22;8530;49.540;8.576;2023-12-14T05:57:24;8.00;99.90
16827;DHT22;8530;49.540;8.576;2023-12-14T05:59:51;8.00;99.90
16827;DHT22;8530;49.540;8.576;2023-12-14T06:02:18;8.00;99.90
16827;DHT22;8530;49.540;8.576;2023-12-14T06:04:44;8.00;99.90
16827;DHT22;8530;49.540;8.576;2023-12-14T06:07:14;8.00;99.90
16827;DHT22;8530;49.540;8.576;2023-12-14T06:09:41;8.00;99.90
16827;DHT22;8530;49.540;8.576;2023-12-14T06:12:07;7.90;99.90
16827;DHT22;8530;49.540;8.576;2023-12-14T06:14:34;7.90;99.90
16827;DHT22;8530;49.540;8.576;2023-12-14T06:17:01;7.80;99.90
16827;DHT22;8530;49.540;8.576;2023-12-14T06:19:27;7.80;99.90
16827;DHT22;8530;49.540;8.576;2023-12-14T06:21:54;7.80;99.90
16827;DHT22;8530;49.540;8.576;2023-12-14T06:24:22;7.80;99.90
16827;DHT22;8530;49.540;8.576;2023-12-14T06:26:49;7.70;99.90
16827;DHT22;8530;49.540;8.576;2023-12-14T06:29:16;7.80;99.90
16827;DHT22;8530;49.540;8.576;2023-12-14T06:31:45;7.80;99.90
16827;DHT22;8530;49.540;8.576;2023-12-14T06:34:12;7.80;99.90
16827;DHT22;8530;49.540;8.576;2023-12-14T06:36:42;7.80;99.90
16827;DHT22;8530;49.540;8.576;2023-12-14T06:39:08;7.80;99.90
16827;DHT22;8530;49.540;8.576;2023-12-14T06:41:37;7.80;99.90
16827;DHT22;8530;49.540;8.576;2023-12-14T06:44:04;7.80;99.90
16827;DHT22;8530;49.540;8.576;2023-12-14T06:46:31;7.80;99.90
16827;DHT22;8530;49.540;8.576;2023-12-14T06:48:58;7.80;99.90
16827;DHT22;8530;49.540;8.576;2023-12-14T06:51:25;7.80;99.90
16827;DHT22;8530;49.540;8.576;2023-12-14T06:53:51;7.80;99.90
16827;DHT22;8530;49.540;8.576;2023-12-14T06:56:18;7.80;99.90
16827;DHT22;8530;49.540;8.576;2023-12-14T06:58:46;7.80;99.90
16827;DHT22;8530;49.540;8.576;2023-12-14T07:01:16;7.80;99.90
16827;DHT22;8530;49.540;8.576;2023-12-14T07:03:43;7.90;99.90
16827;DHT22;8530;49.540;8.576;2023-12-14T07:06:12;7.90;99.90
16827;DHT22;8530;49.540;8.576;2023-12-14T07:08:38;8.00;99.90
16827;DHT22;8530;49.540;8.576;2023-12-14T07:11:06;8.00;99.90
16827;DHT22;8530;49.540;8.576;2023-12-14T07:13:32;8.00;99.90
16827;DHT22;8530;49.540;8.576;2023-12-14T07:16:05;8.10;99.90
16827;DHT22;8530;49.540;8.576;2023-12-14T07:18:33;8.10;99.90
16827;DHT22;8530;49.540;8.576;2023-12-14T07:21:00;8.10;99.90
16827;DHT22;8530;49.540;8.576;2023-12-14T07:23:27;8.10;99.90
16827;DHT22;8530;49.540;8.576;2023-12-14T07:25:53;8.10;99.90
16827;DHT22;8530;49.540;8.576;2023-12-14T07:28:20;8.10;99.90
16827;DHT22;8530;49.540;8.576;2023-12-14T07:30:47;8.10;99.90
16827;DHT22;8530;49.540;8.576;2023-12-14T07:33:16;8.20;99.90
16827;DHT22;8530;49.540;8.576;2023-12-14T07:35:42;8.20;99.90
16827;DHT22;8530;49.540;8.576;2023-12-14T07:38:09;8.30;99.90
16827;DHT22;8530;49.540;8.576;2023-12-14T07:40:36;8.30;99.90
16827;DHT22;8530;49.540;8.576;2023-12-14T07:43:04;8.30;99.90
16827;DHT22;8530;49.540;8.576;2023-12-14T07:45:30;8.40;99.90
16827;DHT22;8530;49.540;8.576;2023-12-14T07:47:57;8.40;99.90
16827;DHT22;8530;49.540;8.576;2023-12-14T07:50:26;8.50;99.90
16827;DHT22;8530;49.540;8.576;2023-12-14T07:52:52;8.50;99.90
16827;DHT22;8530;49.540;8.576;2023-12-14T07:55:20;8.60;99.90
16827;DHT22;8530;49.540;8.576;2023-12-14T07:57:46;8.60;99.90
16827;DHT22;8530;49.540;8.576;2023-12-14T08:00:15;8.70;99.90
16827;DHT22;8530;49.540;8.576;2023-12-14T08:02:41;8.70;99.90
16827;DHT22;8530;49.540;8.576;2023-12-14T08:05:08;8.80;99.90
16827;DHT22;8530;49.540;8.576;2023-12-14T08:07:37;8.80;99.90
16827;DHT22;8530;49.540;8.576;2023-12-14T08:10:04;8.80;99.90
16827;DHT22;8530;49.540;8.576;2023-12-14T08:12:31;8.90;99.90
16827;DHT22;8530;49.540;8.576;2023-12-14T08:14:58;8.90;99.90
16827;DHT22;8530;49.540;8.576;2023-12-14T08:17:24;8.90;99.90
16827;DHT22;8530;49.540;8.576;2023-12-14T08:19:53;9.00;99.90
16827;DHT22;8530;49.540;8.576;2023-12-14T08:22:20;9.00;99.90
16827;DHT22;8530;49.540;8.576;2023-12-14T08:24:48;9.10;99.90
16827;DHT22;8530;49.540;8.576;2023-12-14T08:27:15;9.10;99.90
16827;DHT22;8530;49.540;8.576;2023-12-14T08:29:42;9.20;99.90
16827;DHT22;8530;49.540;8.576;2023-12-14T08:32:10;9.20;99.90
16827;DHT22;8530;49.540;8.576;2023-12-14T08:34:37;9.20;99.90
16827;DHT22;8530;49.540;8.576;2023-12-14T08:37:04;9.30;99.90
16827;DHT22;8530;49.540;8.576;2023-12-14T08:39:31;9.30;99.90
16827;DHT22;8530;49.540;8.576;2023-12-14T08:41:59;9.40;99.90
16827;DHT22;8530;49.540;8.576;2023-12-14T08:44:26;9.40;99.90
16827;DHT22;8530;49.540;8.576;2023-12-14T08:46:52;9.40;99.90
16827;DHT22;8530;49.540;8.576;2023-12-14T08:49:19;9.50;99.90
16827;DHT22;8530;49.540;8.576;2023-12-14T08:51:45;9.50;99.90
16827;DHT22;8530;49.540;8.576;2023-12-14T08:54:12;9.50;99.90
16827;DHT22;8530;49.540;8.576;2023-12-14T08:56:39;9.50;99.90
16827;DHT22;8530;49.540;8.576;2023-12-14T08:59:07;9.50;99.90
16827;DHT22;8530;49.540;8.576;2023-12-14T09:01:34;9.50;99.90
16827;DHT22;8530;49.540;8.576;2023-12-14T09:04:01;9.60;99.90
16827;DHT22;8530;49.540;8.576;2023-12-14T09:06:28;9.60;99.90
16827;DHT22;8530;49.540;8.576;2023-12-14T09:08:54;9.60;99.90
16827;DHT22;8530;49.540;8.576;2023-12-14T09:11:21;9.70;99.90
16827;DHT22;8530;49.540;8.576;2023-12-14T09:13:48;9.70;99.90
16827;DHT22;8530;49.540;8.576;2023-12-14T09:16:17;9.70;99.90
16827;DHT22;8530;49.540;8.576;2023-12-14T09:18:44;9.70;99.90
16827;DHT22;8530;49.540;8.576;2023-12-14T09:21:11;9.80;99.90
16827;DHT22;8530;49.540;8.576;2023-12-14T09:23:38;9.80;99.90
16827;DHT22;8530;49.540;8.576;2023-12-14T09:26:06;9.80;99.90
16827;DHT22;8530;49.540;8.576;2023-12-14T09:28:33;9.80;99.90
16827;DHT22;8530;49.540;8.576;2023-12-14T09:30:59;9.80;99.90
16827;DHT22;8530;49.540;8.576;2023-12-14T09:33:28;9.90;99.90
16827;DHT22;8530;49.540;8.576;2023-12-14T09:35:55;9.90;99.90
16827;DHT22;8530;49.540;8.576;2023-12-14T09:38:22;9.90;99.90
16827;DHT22;8530;49.540;8.576;2023-12-14T09:40:49;9.90;99.90
16827;DHT22;8530;49.540;8.576;2023-12-14T09:43:16;9.90;99.90
16827;DHT22;8530;49.540;8.576;2023-12-14T09:45:43;9.90;99.90
16827;DHT22;8530;49.540;8.576;2023-12-14T09:48:11;9.80;99.90
16827;DHT22;8530;49.540;8.576;2023-12-14T09:50:40;9.80;99.90
16827;DHT22;8530;49.540;8.576;2023-12-14T09:53:07;9.80;99.90
16827;DHT22;8530;49.540;8.576;2023-12-14T09:55:34;9.80;99.90
16827;DHT22;8530;49.540;8.576;2023-12-14T09:58:00;9.80;99.90
16827;DHT22;8530;49.540;8.576;2023-12-14T10:00:35;9.80;99.90
16827;DHT22;8530;49.540;8.576;2023-12-14T10:03:20;9.70;99.90
16827;DHT22;8530;49.540;8.576;2023-12-14T10:05:49;9.70;99.90
16827;DHT22;8530;49.540;8.576;2023-12-14T10:08:16;9.70;99.90
16827;DHT22;8530;49.540;8.576;2023-12-14T10:10:43;9.70;99.90
16827;DHT22;8530;49.540;8.576;2023-12-14T10:13:10;9.70;99.90
16827;DHT22;8530;49.540;8.576;2023-12-14T10:15:41;9.70;99.90
16827;DHT22;8530;49.540;8.576;2023-12-14T10:18:08;9.80;99.90
16827;DHT22;8530;49.540;8.576;2023-12-14T10:20:33;9.80;99.90
16827;DHT22;8530;49.540;8.576;2023-12-14T10:23:01;10.00;99.90
16827;DHT22;8530;49.540;8.576;2023-12-14T10:25:28;10.10;99.90
16827;DHT22;8530;49.540;8.576;2023-12-14T10:27:57;10.20;99.90
16827;DHT22;8530;49.540;8.576;2023-12-14T10:30:25;10.30;99.90
16827;DHT22;8530;49.540;8.576;2023-12-14T10:32:53;10.40;99.90
16827;DHT22;8530;49.540;8.576;2023-12-14T10:35:20;10.50;99.90
16827;DHT22;8530;49.540;8.576;2023-12-14T10:37:50;10.60;99.90
16827;DHT22;8530;49.540;8.576;2023-12-14T10:40:19;10.70;99.90
16827;DHT22;8530;49.540;8.576;2023-12-14T10:42:46;10.90;99.90
16827;DHT22;8530;49.540;8.576;2023-12-14T10:45:14;10.90;99.90
16827;DHT22;8530;49.540;8.576;2023-12-14T10:47:43;11.00;99.90
16827;DHT22;8530;49.540;8.576;2023-12-14T10:50:11;11.00;99.90
16827;DHT22;8530;49.540;8.576;2023-12-14T10:52:38;10.90;99.90
16827;DHT22;8530;49.540;8.576;2023-12-14T10:55:07;10.90;99.90
16827;DHT22;8530;49.540;8.576;2023-12-14T10:57:38;10.90;99.90
16827;DHT22;8530;49.540;8.576;2023-12-14T11:00:05;10.90;99.90
16827;DHT22;8530;49.540;8.576;2023-12-14T11:02:41;11.00;99.90
16827;DHT22;8530;49.540;8.576;2023-12-14T11:05:11;11.10;99.90
16827;DHT22;8530;49.540;8.576;2023-12-14T11:07:45;11.10;99.90
16827;DHT22;8530;49.540;8.576;2023-12-14T11:10:12;11.20;99.90
16827;DHT22;8530;49.540;8.576;2023-12-14T11:12:52;11.30;99.90
16827;DHT22;8530;49.540;8.576;2023-12-14T11:15:21;11.40;99.90
16827;DHT22;8530;49.540;8.576;2023-12-14T11:20:51;11.60;99.90
16827;DHT22;8530;49.540;8.576;2023-12-14T11:23:30;11.70;99.90
16827;DHT22;8530;49.540;8.576;2023-12-14T11:25:59;11.70;99.90
16827;DHT22;8530;49.540;8.576;2023-12-14T11:28:30;11.70;99.90
16827;DHT22;8530;49.540;8.576;2023-12-14T11:30:57;11.80;99.90
16827;DHT22;8530;49.540;8.576;2023-12-14T11:33:24;11.80;99.90
16827;DHT22;8530;49.540;8.576;2023-12-14T11:35:55;11.80;99.90
16827;DHT22;8530;49.540;8.576;2023-12-14T11:38:23;11.70;99.90
16827;DHT22;8530;49.540;8.576;2023-12-14T11:40:51;11.60;99.90
16827;DHT22;8530;49.540;8.576;2023-12-14T11:43:18;11.50;99.90
16827;DHT22;8530;49.540;8.576;2023-12-14T11:45:48;11.50;99.90
16827;DHT22;8530;49.540;8.576;2023-12-14T11:48:15;11.40;99.90
16827;DHT22;8530;49.540;8.576;2023-12-14T11:50:42;11.30;99.90
16827;DHT22;8530;49.540;8.576;2023-12-14T11:53:10;11.20;99.90
16827;DHT22;8530;49.540;8.576;2023-12-14T11:55:38;11.10;99.90
16827;DHT22;8530;49.540;8.576;2023-12-14T11:58:05;11.10;99.90
16827;DHT22;8530;49.540;8.576;2023-12-14T12:00:33;11.10;99.90
16827;DHT22;8530;49.540;8.576;2023-12-14T12:03:13;11.10;99.90
16827;DHT22;8530;49.540;8.576;2023-12-14T12:05:41;11.10;99.90
16827;DHT22;8530;49.540;8.576;2023-12-14T12:08:09;11.10;99.90
16827;DHT22;8530;49.540;8.576;2023-12-14T12:10:36;11.10;99.90
16827;DHT22;8530;49.540;8.576;2023-12-14T12:13:04;11.10;99.90
16827;DHT22;8530;49.540;8.576;2023-12-14T12:15:32;11.20;99.90
16827;DHT22;8530;49.540;8.576;2023-12-14T12:18:02;11.20;99.90
16827;DHT22;8530;49.540;8.576;2023-12-14T12:20:30;11.10;99.90
16827;DHT22;8530;49.540;8.576;2023-12-14T12:22:57;11.10;99.90
16827;DHT22;8530;49.540;8.576;2023-12-14T12:25:24;11.00;99.90
16827;DHT22;8530;49.540;8.576;2023-12-14T12:27:53;10.90;99.90
16827;DHT22;8530;49.540;8.576;2023-12-14T12:30:20;10.80;99.90
16827;DHT22;8530;49.540;8.576;2023-12-14T12:32:46;10.70;99.90
16827;DHT22;8530;49.540;8.576;2023-12-14T12:35:13;10.70;99.90
16827;DHT22;8530;49.540;8.576;2023-12-14T12:37:41;10.70;99.90
16827;DHT22;8530;49.540;8.576;2023-12-14T12:40:09;10.70;99.90
16827;DHT22;8530;49.540;8.576;2023-12-14T12:42:36;10.70;99.90
16827;DHT22;8530;49.540;8.576;2023-12-14T12:45:04;10.80;99.90
16827;DHT22;8530;49.540;8.576;2023-12-14T12:47:31;10.80;99.90
16827;DHT22;8530;49.540;8.576;2023-12-14T12:49:58;10.80;99.90
16827;DHT22;8530;49.540;8.576;2023-12-14T12:52:25;10.80;99.90
16827;DHT22;8530;49.540;8.576;2023-12-14T12:54:53;10.70;99.90
16827;DHT22;8530;49.540;8.576;2023-12-14T12:57:20;10.80;99.90
16827;DHT22;8530;49.540;8.576;2023-12-14T12:59:47;10.80;99.90
16827;DHT22;8530;49.540;8.576;2023-12-14T13:02:14;10.80;99.90
16827;DHT22;8530;49.540;8.576;2023-12-14T13:04:40;10.80;99.90
16827;DHT22;8530;49.540;8.576;2023-12-14T13:07:07;10.70;99.90
16827;DHT22;8530;49.540;8.576;2023-12-14T13:09:34;10.80;99.90
16827;DHT22;8530;49.540;8.576;2023-12-14T13:12:03;10.70;99.90
16827;DHT22;8530;49.540;8.576;2023-12-14T13:14:29;10.70;99.90
16827;DHT22;8530;49.540;8.576;2023-12-14T13:16:56;10.70;99.90
16827;DHT22;8530;49.540;8.576;2023-12-14T13:19:23;10.70;99.90
16827;DHT22;8530;49.540;8.576;2023-12-14T13:21:51;10.70;99.90
16827;DHT22;8530;49.540;8.576;2023-12-14T13:24:18;10.70;99.90
16827;DHT22;8530;49.540;8.576;2023-12-14T13:26:44;10.70;99.90
16827;DHT22;8530;49.540;8.576;2023-12-14T13:29:13;10.70;99.90
16827;DHT22;8530;49.540;8.576;2023-12-14T13:31:39;10.70;99.90
16827;DHT22;8530;49.540;8.576;2023-12-14T13:34:06;10.60;99.90
16827;DHT22;8530;49.540;8.576;2023-12-14T13:36:33;10.60;99.90
16827;DHT22;8530;49.540;8.576;2023-12-14T13:39:00;10.70;99.90
16827;DHT22;8530;49.540;8.576;2023-12-14T13:41:27;10.60;99.90
16827;DHT22;8530;49.540;8.576;2023-12-14T13:43:59;10.70;99.90
16827;DHT22;8530;49.540;8.576;2023-12-14T13:46:27;10.70;99.90
16827;DHT22;8530;49.540;8.576;2023-12-14T13:48:54;10.70;99.90
16827;DHT22;8530;49.540;8.576;2023-12-14T13:51:20;10.70;99.80
16827;DHT22;8530;49.540;8.576;2023-12-14T13:53:47;10.70;99.70
16827;DHT22;8530;49.540;8.576;2023-12-14T13:56:14;10.70;99.60
16827;DHT22;8530;49.540;8.576;2023-12-14T13:58:41;10.60;99.40
16827;DHT22;8530;49.540;8.576;2023-12-14T14:01:07;10.60;99.50
16827;DHT22;8530;49.540;8.576;2023-12-14T14:03:36;10.60;99.40
16827;DHT22;8530;49.540;8.576;2023-12-14T14:06:04;10.50;99.30
16827;DHT22;8530;49.540;8.576;2023-12-14T14:08:31;10.50;99.30
16827;DHT22;8530;49.540;8.576;2023-12-14T14:10:58;10.50;99.30
16827;DHT22;8530;49.540;8.576;2023-12-14T14:13:26;10.50;99.20
16827;DHT22;8530;49.540;8.576;2023-12-14T14:15:52;10.40;99.10
16827;DHT22;8530;49.540;8.576;2023-12-14T14:18:19;10.30;99.00
16827;DHT22;8530;49.540;8.576;2023-12-14T14:20:47;10.20;99.00
16827;DHT22;8530;49.540;8.576;2023-12-14T14:23:14;10.20;99.00
16827;DHT22;8530;49.540;8.576;2023-12-14T14:25:41;10.10;99.00
16827;DHT22;8530;49.540;8.576;2023-12-14T14:28:07;10.00;98.90
16827;DHT22;8530;49.540;8.576;2023-12-14T14:30:34;9.90;99.30
16827;DHT22;8530;49.540;8.576;2023-12-14T14:33:01;9.90;99.30
16827;DHT22;8530;49.540;8.576;2023-12-14T14:35:28;9.80;99.30
16827;DHT22;8530;49.540;8.576;2023-12-14T14:37:56;9.80;99.20
16827;DHT22;8530;49.540;8.576;2023-12-14T14:40:23;9.70;99.20
16827;DHT22;8530;49.540;8.576;2023-12-14T14:42:49;9.60;99.10
16827;DHT22;8530;49.540;8.576;2023-12-14T14:45:16;9.60;99.10
16827;DHT22;8530;49.540;8.576;2023-12-14T14:47:43;9.50;99.10
16827;DHT22;8530;49.540;8.576;2023-12-14T14:50:10;9.50;99.10
16827;DHT22;8530;49.540;8.576;2023-12-14T14:52:37;9.50;99.00
16827;DHT22;8530;49.540;8.576;2023-12-14T14:55:05;9.40;99.00
16827;DHT22;8530;49.540;8.576;2023-12-14T14:57:32;9.40;99.00
16827;DHT22;8530;49.540;8.576;2023-12-14T14:59:59;9.30;99.00
16827;DHT22;8530;49.540;8.576;2023-12-14T15:02:26;9.30;99.00
16827;DHT22;8530;49.540;8.576;2023-12-14T15:04:52;9.30;98.90
16827;DHT22;8530;49.540;8.576;2023-12-14T15:07:19;9.20;98.80
16827;DHT22;8530;49.540;8.576;2023-12-14T15:09:46;9.20;98.80
16827;DHT22;8530;49.540;8.576;2023-12-14T15:12:14;9.10;98.80
16827;DHT22;8530;49.540;8.576;2023-12-14T15:14:40;9.10;98.80
16827;DHT22;8530;49.540;8.576;2023-12-14T15:17:07;9.10;98.90
16827;DHT22;8530;49.540;8.576;2023-12-14T15:19:34;9.10;98.90
16827;DHT22;8530;49.540;8.576;2023-12-14T15:22:01;9.00;98.80
16827;DHT22;8530;49.540;8.576;2023-12-14T15:24:28;9.00;98.80
16827;DHT22;8530;49.540;8.576;2023-12-14T15:26:54;9.00;98.80
16827;DHT22;8530;49.540;8.576;2023-12-14T15:29:22;9.00;98.80
16827;DHT22;8530;49.540;8.576;2023-12-14T15:31:49;8.90;98.80
16827;DHT22;8530;49.540;8.576;2023-12-14T15:34:18;8.90;98.80
16827;DHT22;8530;49.540;8.576;2023-12-14T15:36:44;8.90;98.80
16827;DHT22;8530;49.540;8.576;2023-12-14T15:39:11;8.90;98.80
16827;DHT22;8530;49.540;8.576;2023-12-14T15:41:38;8.90;98.80
16827;DHT22;8530;49.540;8.576;2023-12-14T15:44:04;8.80;98.80
16827;DHT22;8530;49.540;8.576;2023-12-14T15:46:32;8.80;98.80
16827;DHT22;8530;49.540;8.576;2023-12-14T15:48:59;8.70;98.70
16827;DHT22;8530;49.540;8.576;2023-12-14T15:51:27;8.60;98.70
16827;DHT22;8530;49.540;8.576;2023-12-14T15:53:53;8.60;98.70
16827;DHT22;8530;49.540;8.576;2023-12-14T15:56:22;8.50;98.80
16827;DHT22;8530;49.540;8.576;2023-12-14T15:58:50;8.50;98.90
16827;DHT22;8530;49.540;8.576;2023-12-14T16:01:17;8.50;98.90